Terminal Aerodrome Forecast
Issued by NWS

Home | Current Version | Previous Version | Text Only | Print | Product List | Glossary On
Versions: 1 2 3 4 5 6 7 8 9 10 11 12 13 14 15 16 17 18 19 20 21 22 23 24 25 26 27 28 29 30 31 32 33 34 35 36 37 38 39 40 41 42 43 44 45 46 47
000
FTUS44 KHGX 011504 AAA
TAFCXO
TAF AMD
KCXO 011504Z 0115/0212 VRB03KT P6SM VCSH FEW040 BKN070
     FM011900 11005KT P6SM VCTS BKN040CB
     FM020200 02004KT P6SM BKN040
     FM020600 35007KT P6SM VCSH BKN025=

USA.gov is the U.S. government's official web portal to all federal, state and local government web resources and services.